Time;durP1;ratioP1;P1;durP2;ratioP2;P2;SDS_P1;SDS_P2;PMS_P1;PMS_P2;Temp;Humidity;BMP_temperature;BMP_pressure;BME280_temperature;BME280_humidity;BME280_pressure;Samples;Min_cycle;Max_cycle;Signal;HPM_P1;HPM_P2
2024/01/21 00:00:41;;;;;;;6.33;3.13;;;;;;;;;;5091894;28;20060;-67
2024/01/21 00:03:06;;;;;;;8.80;3.20;;;;;;;;;;5100935;27;20078;-67
2024/01/21 00:05:32;;;;;;;7.70;3.37;;;;;;;;;;5122144;27;20020;-67
2024/01/21 00:07:57;;;;;;;7.23;3.40;;;;;;;;;;5108644;27;20019;-68
2024/01/21 00:10:22;;;;;;;6.27;3.10;;;;;;;;;;5109118;27;20027;-67
2024/01/21 00:12:47;;;;;;;7.17;3.30;;;;;;;;;;5115461;27;20353;-68
2024/01/21 00:15:12;;;;;;;7.67;3.30;;;;;;;;;;5113645;27;20620;-68
2024/01/21 00:17:38;;;;;;;8.70;3.27;;;;;;;;;;5109584;27;20054;-68
2024/01/21 00:20:04;;;;;;;6.93;2.77;;;;;;;;;;5111043;27;20104;-67
2024/01/21 00:22:29;;;;;;;5.93;2.97;;;;;;;;;;5111087;27;20055;-68
2024/01/21 00:24:54;;;;;;;6.90;3.10;;;;;;;;;;5112554;27;20074;-67
2024/01/21 00:27:20;;;;;;;6.83;3.33;;;;;;;;;;5121439;27;20024;-67
2024/01/21 00:29:46;;;;;;;5.53;3.00;;;;;;;;;;5109919;27;20024;-67
2024/01/21 00:32:11;;;;;;;5.43;2.50;;;;;;;;;;5111225;27;20084;-67
2024/01/21 00:34:36;;;;;;;6.53;3.40;;;;;;;;;;5112334;27;20020;-68
2024/01/21 00:37:01;;;;;;;5.70;2.77;;;;;;;;;;5116740;27;20039;-67
2024/01/21 00:39:27;;;;;;;5.40;2.77;;;;;;;;;;5114250;27;20110;-67
2024/01/21 00:41:52;;;;;;;8.97;2.97;;;;;;;;;;5112527;27;20670;-67
2024/01/21 00:44:18;;;;;;;5.97;2.90;;;;;;;;;;5106369;27;20030;-67
2024/01/21 00:46:44;;;;;;;5.87;2.40;;;;;;;;;;5112007;27;20365;-67
2024/01/21 00:49:09;;;;;;;5.20;2.60;;;;;;;;;;5115449;27;20038;-67
2024/01/21 00:51:34;;;;;;;7.00;2.77;;;;;;;;;;5107760;27;20535;-67
2024/01/21 00:54:00;;;;;;;5.80;2.73;;;;;;;;;;5117120;27;20023;-68
2024/01/21 00:56:25;;;;;;;10.67;2.87;;;;;;;;;;5103966;28;20027;-67
2024/01/21 00:58:50;;;;;;;7.03;2.70;;;;;;;;;;5116452;27;20023;-67
2024/01/21 01:01:15;;;;;;;6.30;2.37;;;;;;;;;;5117339;27;20387;-68
2024/01/21 01:03:41;;;;;;;7.10;2.80;;;;;;;;;;5116560;27;20407;-67
2024/01/21 01:06:07;;;;;;;6.17;2.50;;;;;;;;;;5119183;27;20038;-67
2024/01/21 01:08:32;;;;;;;5.30;2.60;;;;;;;;;;5119074;27;20019;-68
2024/01/21 01:10:57;;;;;;;5.40;2.40;;;;;;;;;;5111283;27;20751;-67
2024/01/21 01:13:22;;;;;;;5.00;2.23;;;;;;;;;;5115076;27;20012;-68
2024/01/21 01:15:47;;;;;;;5.30;2.50;;;;;;;;;;5113043;27;20108;-68
2024/01/21 01:18:16;;;;;;;5.17;2.13;;;;;;;;;;5111638;27;20023;-68
2024/01/21 01:20:41;;;;;;;5.27;2.40;;;;;;;;;;5110100;27;20015;-68
2024/01/21 01:23:06;;;;;;;6.20;2.40;;;;;;;;;;5111763;27;20042;-67
2024/01/21 01:25:31;;;;;;;5.00;2.30;;;;;;;;;;5116967;27;20535;-67
2024/01/21 01:27:57;;;;;;;5.67;2.50;;;;;;;;;;5107301;27;20039;-68
2024/01/21 01:30:22;;;;;;;5.57;2.10;;;;;;;;;;5107797;27;20057;-68
2024/01/21 01:32:48;;;;;;;4.63;2.30;;;;;;;;;;5112211;27;20011;-68
2024/01/21 01:35:13;;;;;;;4.87;2.00;;;;;;;;;;5112113;27;20028;-67
2024/01/21 01:37:38;;;;;;;6.90;2.20;;;;;;;;;;5103933;27;20030;-67
2024/01/21 01:40:04;;;;;;;4.87;2.13;;;;;;;;;;5106554;28;20468;-67
2024/01/21 01:42:29;;;;;;;5.27;2.20;;;;;;;;;;5102698;28;20035;-68
2024/01/21 01:44:54;;;;;;;6.50;2.40;;;;;;;;;;5101180;28;20392;-68
2024/01/21 01:47:20;;;;;;;6.17;2.50;;;;;;;;;;5108261;28;20024;-68
2024/01/21 01:49:45;;;;;;;5.40;2.47;;;;;;;;;;5107314;27;20055;-68
2024/01/21 01:52:12;;;;;;;5.00;2.00;;;;;;;;;;5121421;27;20038;-67
2024/01/21 01:54:39;;;;;;;5.90;2.40;;;;;;;;;;5103559;28;20471;-68
2024/01/21 01:57:06;;;;;;;4.93;2.30;;;;;;;;;;5105411;28;20023;-68
2024/01/21 01:59:32;;;;;;;6.00;2.20;;;;;;;;;;5107959;28;20040;-68
2024/01/21 02:01:58;;;;;;;5.87;2.20;;;;;;;;;;5111751;28;20434;-68
2024/01/21 02:04:23;;;;;;;7.03;2.07;;;;;;;;;;5112832;28;20052;-68
2024/01/21 02:06:49;;;;;;;4.97;2.27;;;;;;;;;;5113101;28;20032;-68
2024/01/21 02:09:14;;;;;;;4.93;2.20;;;;;;;;;;5111903;28;20109;-67
2024/01/21 02:11:39;;;;;;;5.23;2.23;;;;;;;;;;5109885;28;20024;-67
2024/01/21 02:14:04;;;;;;;4.23;2.23;;;;;;;;;;5096576;28;20035;-67
2024/01/21 02:16:30;;;;;;;6.37;2.27;;;;;;;;;;5100996;28;20030;-69
2024/01/21 02:18:55;;;;;;;5.43;2.53;;;;;;;;;;5113762;27;20031;-69
2024/01/21 02:21:20;;;;;;;4.50;2.00;;;;;;;;;;5117264;27;20027;-69
2024/01/21 02:23:45;;;;;;;5.40;2.50;;;;;;;;;;5114438;27;20030;-69
2024/01/21 02:26:11;;;;;;;6.17;2.57;;;;;;;;;;5118058;27;20105;-69
2024/01/21 02:28:36;;;;;;;5.00;2.60;;;;;;;;;;5116718;27;20023;-69
2024/01/21 02:31:01;;;;;;;6.10;2.47;;;;;;;;;;5115813;27;20024;-69
2024/01/21 02:33:26;;;;;;;6.10;2.47;;;;;;;;;;5115975;27;20036;-69
2024/01/21 02:35:52;;;;;;;6.47;2.73;;;;;;;;;;5114134;27;20107;-69
2024/01/21 02:38:17;;;;;;;7.53;2.90;;;;;;;;;;5112075;27;20034;-69
2024/01/21 02:40:42;;;;;;;7.27;3.00;;;;;;;;;;5106537;27;20027;-69
2024/01/21 02:43:08;;;;;;;7.70;2.53;;;;;;;;;;5097242;28;20051;-69
2024/01/21 02:45:34;;;;;;;7.77;3.27;;;;;;;;;;5102785;27;20051;-69
2024/01/21 02:48:00;;;;;;;6.83;2.57;;;;;;;;;;5107472;27;20065;-69
2024/01/21 02:50:25;;;;;;;6.87;2.90;;;;;;;;;;5106517;27;20053;-69
2024/01/21 02:52:51;;;;;;;6.23;2.80;;;;;;;;;;5110099;27;20031;-69
2024/01/21 02:55:16;;;;;;;7.53;2.83;;;;;;;;;;5115320;27;20028;-69
2024/01/21 02:57:41;;;;;;;7.13;2.90;;;;;;;;;;5116794;27;20383;-69
2024/01/21 03:00:07;;;;;;;7.93;3.13;;;;;;;;;;5118398;27;20019;-68
2024/01/21 03:02:32;;;;;;;6.83;3.33;;;;;;;;;;5113784;27;20043;-69
2024/01/21 03:04:58;;;;;;;6.77;2.70;;;;;;;;;;5116604;27;20254;-69
2024/01/21 03:07:23;;;;;;;6.93;3.03;;;;;;;;;;5116138;27;20019;-69
2024/01/21 03:09:48;;;;;;;6.93;2.90;;;;;;;;;;5111352;27;20039;-69
2024/01/21 03:12:14;;;;;;;6.57;2.33;;;;;;;;;;5115038;27;20156;-69
2024/01/21 03:14:39;;;;;;;8.17;3.33;;;;;;;;;;5108250;27;20027;-69
2024/01/21 03:17:04;;;;;;;6.27;2.90;;;;;;;;;;5112927;27;20387;-69
2024/01/21 03:19:30;;;;;;;7.57;3.23;;;;;;;;;;5121138;27;20027;-69
2024/01/21 03:21:55;;;;;;;8.27;3.50;;;;;;;;;;5111142;27;20039;-69
2024/01/21 03:24:20;;;;;;;7.23;2.93;;;;;;;;;;5113223;27;20372;-69
2024/01/21 03:26:45;;;;;;;7.87;3.50;;;;;;;;;;5102163;27;20031;-68
2024/01/21 03:29:11;;;;;;;9.43;3.90;;;;;;;;;;5098541;28;20047;-68
2024/01/21 03:31:36;;;;;;;6.70;3.10;;;;;;;;;;5112631;27;20031;-68
2024/01/21 03:34:03;;;;;;;9.03;3.70;;;;;;;;;;5105887;27;20023;-68
2024/01/21 03:36:29;;;;;;;8.23;3.50;;;;;;;;;;5108921;27;20113;-68
2024/01/21 03:38:54;;;;;;;9.73;3.40;;;;;;;;;;5113772;27;20936;-68
2024/01/21 03:41:19;;;;;;;9.23;3.60;;;;;;;;;;5116098;27;20047;-68
2024/01/21 03:43:44;;;;;;;9.53;3.30;;;;;;;;;;5113042;27;20110;-68
2024/01/21 03:46:10;;;;;;;9.50;3.50;;;;;;;;;;5103651;28;20535;-68
2024/01/21 03:48:35;;;;;;;9.20;3.23;;;;;;;;;;5109192;27;20043;-68
2024/01/21 03:51:00;;;;;;;10.03;4.00;;;;;;;;;;5115017;27;20020;-67
2024/01/21 03:53:25;;;;;;;9.10;3.63;;;;;;;;;;5113046;27;20019;-68
2024/01/21 03:55:51;;;;;;;11.17;3.87;;;;;;;;;;5087737;27;20022;-68
2024/01/21 03:58:16;;;;;;;10.00;3.67;;;;;;;;;;5102872;27;20506;-68
2024/01/21 04:00:41;;;;;;;8.90;3.83;;;;;;;;;;5109449;27;20409;-68
2024/01/21 04:03:07;;;;;;;9.43;4.13;;;;;;;;;;5115001;27;20124;-68
2024/01/21 04:05:32;;;;;;;11.00;4.00;;;;;;;;;;5116943;27;20027;-68
2024/01/21 04:07:59;;;;;;;7.87;3.27;;;;;;;;;;5112011;28;20039;-68
2024/01/21 04:10:24;;;;;;;7.83;3.60;;;;;;;;;;5114684;27;20024;-68
2024/01/21 04:12:49;;;;;;;7.53;3.37;;;;;;;;;;5110797;27;20034;-68
2024/01/21 04:15:14;;;;;;;10.07;3.77;;;;;;;;;;5106688;27;20383;-68
2024/01/21 04:17:40;;;;;;;8.10;3.43;;;;;;;;;;5104837;27;20019;-68
2024/01/21 04:20:07;;;;;;;6.07;2.73;;;;;;;;;;5116043;27;20031;-68
2024/01/21 04:22:33;;;;;;;8.17;3.63;;;;;;;;;;5110147;27;20467;-68
2024/01/21 04:24:58;;;;;;;8.90;3.37;;;;;;;;;;5111924;27;20034;-68
2024/01/21 04:27:23;;;;;;;9.13;3.60;;;;;;;;;;5117509;27;20024;-68
2024/01/21 04:29:48;;;;;;;8.13;3.33;;;;;;;;;;5113964;27;20047;-68
2024/01/21 04:32:14;;;;;;;6.97;3.07;;;;;;;;;;5118387;27;20388;-68
2024/01/21 04:34:39;;;;;;;10.67;3.50;;;;;;;;;;5115489;27;20073;-67
2024/01/21 04:37:04;;;;;;;8.73;3.47;;;;;;;;;;5116786;27;20088;-69
2024/01/21 04:39:30;;;;;;;9.27;3.73;;;;;;;;;;5112333;27;20578;-69
2024/01/21 04:41:55;;;;;;;9.20;3.70;;;;;;;;;;5108386;27;20042;-69
2024/01/21 04:44:20;;;;;;;9.07;3.90;;;;;;;;;;5112447;27;20119;-69
2024/01/21 04:46:46;;;;;;;9.50;3.63;;;;;;;;;;5110448;27;20046;-69
2024/01/21 04:49:11;;;;;;;10.47;3.97;;;;;;;;;;5113941;27;20051;-69
2024/01/21 04:51:37;;;;;;;8.00;3.30;;;;;;;;;;5111273;27;20050;-69
2024/01/21 04:54:03;;;;;;;9.73;3.47;;;;;;;;;;5108020;27;20043;-69
2024/01/21 04:56:28;;;;;;;7.50;3.23;;;;;;;;;;5122376;27;20023;-69
2024/01/21 04:58:53;;;;;;;9.07;3.13;;;;;;;;;;5113577;27;20023;-69
2024/01/21 05:01:20;;;;;;;7.33;3.30;;;;;;;;;;5109139;27;20026;-69
2024/01/21 05:03:46;;;;;;;7.83;3.40;;;;;;;;;;5086864;28;20040;-69
2024/01/21 05:06:11;;;;;;;6.60;3.20;;;;;;;;;;5081846;28;20684;-69
2024/01/21 05:08:38;;;;;;;9.30;3.60;;;;;;;;;;5098249;28;20028;-69
2024/01/21 05:11:04;;;;;;;9.33;4.30;;;;;;;;;;5088215;28;20035;-69
2024/01/21 05:13:29;;;;;;;8.87;3.60;;;;;;;;;;5076849;28;20469;-69
2024/01/21 05:15:54;;;;;;;7.57;3.37;;;;;;;;;;5090157;28;20392;-69
2024/01/21 05:18:20;;;;;;;5.70;2.40;;;;;;;;;;5093646;28;20054;-69
2024/01/21 05:20:46;;;;;;;9.33;3.43;;;;;;;;;;5096205;28;20028;-69
2024/01/21 05:23:11;;;;;;;7.30;2.90;;;;;;;;;;5096001;28;20026;-69
2024/01/21 05:25:36;;;;;;;7.43;2.97;;;;;;;;;;5090355;28;20024;-69
2024/01/21 05:28:02;;;;;;;7.50;2.97;;;;;;;;;;5097563;28;20069;-69
2024/01/21 05:30:27;;;;;;;7.27;3.33;;;;;;;;;;5092579;28;20024;-69
2024/01/21 05:32:52;;;;;;;7.00;2.70;;;;;;;;;;5099858;28;20019;-69
2024/01/21 05:35:18;;;;;;;6.60;3.10;;;;;;;;;;5095596;28;20058;-69
2024/01/21 05:37:44;;;;;;;7.57;3.10;;;;;;;;;;5096268;28;20427;-69
2024/01/21 05:40:09;;;;;;;6.73;2.90;;;;;;;;;;5095384;28;20031;-68
2024/01/21 05:42:34;;;;;;;8.60;2.97;;;;;;;;;;5098959;28;20024;-69
2024/01/21 05:45:00;;;;;;;7.13;2.90;;;;;;;;;;5085389;28;20099;-69
2024/01/21 05:47:25;;;;;;;8.00;2.63;;;;;;;;;;5090098;28;20430;-69
2024/01/21 05:49:50;;;;;;;7.97;3.00;;;;;;;;;;5093170;28;20027;-69
2024/01/21 05:52:15;;;;;;;9.33;3.33;;;;;;;;;;5096852;28;20141;-69
2024/01/21 05:54:41;;;;;;;7.83;3.43;;;;;;;;;;5093824;28;20016;-69
2024/01/21 05:57:06;;;;;;;8.50;3.10;;;;;;;;;;5091982;28;20047;-69
2024/01/21 05:59:32;;;;;;;7.60;3.20;;;;;;;;;;5093262;28;20016;-67
2024/01/21 06:01:57;;;;;;;6.93;2.83;;;;;;;;;;5087213;28;20035;-69
2024/01/21 06:04:23;;;;;;;8.40;2.77;;;;;;;;;;5093953;28;20080;-69
2024/01/21 06:06:49;;;;;;;7.83;3.10;;;;;;;;;;5111539;28;20084;-68
2024/01/21 06:09:14;;;;;;;8.53;3.10;;;;;;;;;;5110933;28;20012;-70
2024/01/21 06:11:40;;;;;;;7.63;3.40;;;;;;;;;;5112065;28;20004;-69
2024/01/21 06:14:05;;;;;;;7.47;3.37;;;;;;;;;;5107329;28;20354;-69
2024/01/21 06:16:30;;;;;;;7.37;3.10;;;;;;;;;;5115992;28;20023;-69
2024/01/21 06:18:56;;;;;;;7.07;3.00;;;;;;;;;;5113221;28;20287;-69
2024/01/21 06:21:21;;;;;;;8.97;3.10;;;;;;;;;;5097901;28;20620;-69
2024/01/21 06:23:46;;;;;;;6.50;2.80;;;;;;;;;;5098288;28;20425;-69
2024/01/21 06:26:19;;;;;;;8.47;3.43;;;;;;;;;;5109359;28;20063;-69
2024/01/21 06:28:45;;;;;;;7.53;2.97;;;;;;;;;;5116528;28;20020;-69
2024/01/21 06:31:10;;;;;;;7.93;3.37;;;;;;;;;;5101153;28;20046;-68
2024/01/21 06:33:36;;;;;;;8.33;2.90;;;;;;;;;;5108291;28;20011;-68
2024/01/21 06:36:01;;;;;;;11.17;3.70;;;;;;;;;;5113670;28;20015;-69
2024/01/21 06:38:26;;;;;;;7.40;3.13;;;;;;;;;;5116550;28;20080;-69
2024/01/21 06:40:52;;;;;;;8.63;3.70;;;;;;;;;;5110950;28;20023;-69
2024/01/21 06:43:18;;;;;;;6.83;3.30;;;;;;;;;;5114960;28;20018;-69
2024/01/21 06:45:43;;;;;;;8.70;3.50;;;;;;;;;;5111980;28;20024;-69
2024/01/21 06:48:08;;;;;;;7.50;3.20;;;;;;;;;;5109219;28;20031;-69
2024/01/21 06:50:34;;;;;;;5.97;2.67;;;;;;;;;;5120833;28;20019;-68
2024/01/21 06:53:00;;;;;;;7.87;3.50;;;;;;;;;;5110939;28;20034;-69
2024/01/21 06:55:25;;;;;;;6.60;2.90;;;;;;;;;;5116214;28;20023;-69
2024/01/21 06:57:50;;;;;;;6.93;2.93;;;;;;;;;;5115460;28;20025;-69
2024/01/21 07:00:16;;;;;;;6.43;3.00;;;;;;;;;;5112043;28;20031;-69
2024/01/21 07:02:41;;;;;;;6.47;2.47;;;;;;;;;;5120325;28;20043;-68
2024/01/21 07:05:07;;;;;;;7.13;2.80;;;;;;;;;;5117604;27;20032;-68
2024/01/21 07:07:32;;;;;;;4.90;2.20;;;;;;;;;;5120232;27;20335;-69
2024/01/21 07:09:58;;;;;;;7.40;2.13;;;;;;;;;;5112113;27;20045;-68
2024/01/21 07:12:23;;;;;;;5.63;2.40;;;;;;;;;;5107882;27;20020;-69
2024/01/21 07:14:50;;;;;;;5.00;2.20;;;;;;;;;;5116982;27;20094;-68
2024/01/21 07:17:15;;;;;;;6.13;2.40;;;;;;;;;;5116066;27;20411;-68
2024/01/21 07:19:42;;;;;;;5.80;2.17;;;;;;;;;;5111027;27;20019;-69
2024/01/21 07:22:08;;;;;;;6.33;2.50;;;;;;;;;;5109693;27;20089;-69
2024/01/21 07:24:34;;;;;;;6.20;2.50;;;;;;;;;;5116512;27;20459;-69
2024/01/21 07:26:59;;;;;;;4.43;2.00;;;;;;;;;;5115826;27;20024;-68
2024/01/21 07:29:24;;;;;;;6.50;2.60;;;;;;;;;;5113522;27;20429;-68
2024/01/21 07:31:50;;;;;;;4.37;1.90;;;;;;;;;;5113362;27;20020;-68
2024/01/21 07:34:15;;;;;;;5.57;2.37;;;;;;;;;;5106183;27;20548;-70
2024/01/21 07:36:40;;;;;;;6.93;2.50;;;;;;;;;;5105796;27;20555;-69
2024/01/21 07:39:06;;;;;;;5.30;2.37;;;;;;;;;;5118722;27;20063;-68
2024/01/21 07:41:31;;;;;;;5.37;2.33;;;;;;;;;;5114028;27;20019;-68
2024/01/21 07:43:57;;;;;;;4.37;2.03;;;;;;;;;;5095614;28;20031;-69
2024/01/21 07:46:22;;;;;;;3.80;1.80;;;;;;;;;;5115909;27;20016;-68
2024/01/21 07:48:48;;;;;;;5.63;2.30;;;;;;;;;;5119041;27;20043;-69
2024/01/21 07:51:13;;;;;;;5.13;1.80;;;;;;;;;;5106185;27;20016;-68
2024/01/21 07:53:38;;;;;;;4.20;1.87;;;;;;;;;;5118007;27;20011;-69
2024/01/21 07:56:04;;;;;;;5.23;2.00;;;;;;;;;;5105726;28;20620;-68
2024/01/21 07:58:29;;;;;;;4.30;1.80;;;;;;;;;;5117719;27;20024;-69
2024/01/21 08:00:54;;;;;;;4.17;1.77;;;;;;;;;;5113493;27;20072;-68
2024/01/21 08:03:19;;;;;;;4.77;1.80;;;;;;;;;;5097217;27;20059;-69
2024/01/21 08:05:45;;;;;;;4.70;2.00;;;;;;;;;;5090997;28;20376;-68
2024/01/21 08:08:10;;;;;;;4.10;1.80;;;;;;;;;;5082621;28;20105;-68
2024/01/21 08:10:35;;;;;;;3.50;1.63;;;;;;;;;;5100175;28;20023;-68
2024/01/21 08:13:00;;;;;;;5.40;2.00;;;;;;;;;;5097959;28;20431;-68
2024/01/21 08:15:26;;;;;;;4.20;1.70;;;;;;;;;;5092237;28;20099;-69
2024/01/21 08:17:51;;;;;;;3.77;1.53;;;;;;;;;;5094975;28;20090;-68
2024/01/21 08:20:16;;;;;;;5.00;1.93;;;;;;;;;;5092963;28;20032;-68
2024/01/21 08:22:43;;;;;;;5.57;2.13;;;;;;;;;;5095240;28;20103;-69
2024/01/21 08:25:08;;;;;;;7.67;2.10;;;;;;;;;;5094999;28;20094;-68
2024/01/21 08:27:33;;;;;;;6.40;1.97;;;;;;;;;;5099221;28;20039;-68
2024/01/21 08:29:59;;;;;;;3.93;1.70;;;;;;;;;;5094969;28;20073;-69
2024/01/21 08:32:24;;;;;;;5.37;1.70;;;;;;;;;;5098875;28;20048;-68
2024/01/21 08:34:49;;;;;;;4.70;1.70;;;;;;;;;;5095866;28;20437;-68
2024/01/21 08:37:14;;;;;;;4.60;1.93;;;;;;;;;;5089944;28;20033;-68
2024/01/21 08:39:40;;;;;;;3.83;1.60;;;;;;;;;;5092571;28;20089;-68
2024/01/21 08:42:05;;;;;;;5.13;2.03;;;;;;;;;;5090555;28;20050;-68
2024/01/21 08:44:30;;;;;;;4.23;1.60;;;;;;;;;;5091284;28;20480;-68
2024/01/21 08:46:56;;;;;;;4.33;1.80;;;;;;;;;;5092928;28;20030;-68
2024/01/21 08:49:22;;;;;;;4.10;1.70;;;;;;;;;;5087982;28;20084;-67
2024/01/21 08:51:47;;;;;;;4.33;1.77;;;;;;;;;;5090691;28;20016;-67
2024/01/21 08:54:13;;;;;;;4.30;1.90;;;;;;;;;;5078522;28;20162;-68
2024/01/21 08:56:38;;;;;;;5.60;1.90;;;;;;;;;;5097602;28;20027;-68
2024/01/21 08:59:03;;;;;;;5.67;2.63;;;;;;;;;;5092275;28;20036;-68
2024/01/21 09:01:29;;;;;;;4.90;2.00;;;;;;;;;;5088018;28;20024;-67
2024/01/21 09:03:54;;;;;;;5.23;1.87;;;;;;;;;;5104718;27;20119;-67
2024/01/21 09:06:19;;;;;;;8.57;2.10;;;;;;;;;;5115101;27;20094;-68
2024/01/21 09:08:45;;;;;;;5.03;2.33;;;;;;;;;;5115922;27;20027;-67
2024/01/21 09:11:11;;;;;;;5.90;1.83;;;;;;;;;;5112650;27;20031;-68
2024/01/21 09:13:37;;;;;;;5.17;2.00;;;;;;;;;;5116054;27;20503;-67
2024/01/21 09:16:03;;;;;;;4.30;1.70;;;;;;;;;;5111705;27;20058;-68
2024/01/21 09:18:30;;;;;;;4.90;2.20;;;;;;;;;;5115996;27;20106;-68
2024/01/21 09:20:56;;;;;;;3.83;1.73;;;;;;;;;;5112005;27;20481;-67
2024/01/21 09:23:21;;;;;;;6.00;2.30;;;;;;;;;;5116082;27;20024;-68
2024/01/21 09:25:46;;;;;;;6.50;2.23;;;;;;;;;;5112526;27;20023;-67
2024/01/21 09:28:11;;;;;;;5.50;2.20;;;;;;;;;;5084001;27;20110;-67
2024/01/21 09:30:37;;;;;;;5.00;2.40;;;;;;;;;;5116824;27;20067;-67
2024/01/21 09:33:02;;;;;;;4.27;1.90;;;;;;;;;;5114496;27;20027;-67
2024/01/21 09:35:27;;;;;;;6.00;2.00;;;;;;;;;;5111422;27;20027;-68
2024/01/21 09:37:52;;;;;;;7.37;2.37;;;;;;;;;;5104061;27;20425;-68
2024/01/21 09:40:18;;;;;;;5.73;2.23;;;;;;;;;;5108429;27;20088;-67
2024/01/21 09:42:44;;;;;;;5.30;2.23;;;;;;;;;;5116041;27;20066;-67
2024/01/21 09:45:10;;;;;;;5.30;2.00;;;;;;;;;;5110097;27;20490;-67
2024/01/21 09:47:36;;;;;;;5.03;2.10;;;;;;;;;;5104934;27;20023;-67
2024/01/21 09:50:02;;;;;;;5.53;1.90;;;;;;;;;;5103365;28;20036;-67
2024/01/21 09:52:27;;;;;;;5.53;2.50;;;;;;;;;;5113169;27;20107;-68
2024/01/21 09:54:53;;;;;;;4.67;2.10;;;;;;;;;;5116651;27;20020;-68
2024/01/21 09:57:18;;;;;;;7.60;1.93;;;;;;;;;;5107254;27;20032;-69
2024/01/21 09:59:43;;;;;;;7.40;2.37;;;;;;;;;;5109917;28;20667;-68
2024/01/21 10:02:13;;;;;;;4.80;2.13;;;;;;;;;;5096276;28;20675;-68
2024/01/21 10:04:39;;;;;;;8.13;3.20;;;;;;;;;;5094370;28;20399;-68
2024/01/21 10:07:04;;;;;;;6.17;2.47;;;;;;;;;;5087219;28;20024;-68
2024/01/21 10:09:29;;;;;;;10.17;2.37;;;;;;;;;;5089313;28;20073;-68
2024/01/21 10:11:56;;;;;;;6.87;2.73;;;;;;;;;;5097127;28;20024;-68
2024/01/21 10:14:21;;;;;;;5.90;2.47;;;;;;;;;;5100622;28;20019;-68
2024/01/21 10:16:49;;;;;;;6.53;2.77;;;;;;;;;;5100310;28;20549;-68
2024/01/21 10:19:15;;;;;;;5.73;2.47;;;;;;;;;;5095889;28;20027;-68
2024/01/21 10:21:40;;;;;;;5.13;2.20;;;;;;;;;;5099412;28;20399;-67
2024/01/21 10:24:06;;;;;;;7.37;3.20;;;;;;;;;;5097922;28;20062;-68
2024/01/21 10:26:32;;;;;;;7.97;3.10;;;;;;;;;;5092371;28;20032;-68
2024/01/21 10:28:57;;;;;;;7.13;3.03;;;;;;;;;;5077021;28;20034;-68
2024/01/21 10:31:22;;;;;;;6.47;3.00;;;;;;;;;;5098696;28;20059;-68
2024/01/21 10:33:48;;;;;;;7.67;3.10;;;;;;;;;;5095669;28;20020;-69
2024/01/21 10:36:14;;;;;;;5.90;2.67;;;;;;;;;;5096866;28;20439;-68
2024/01/21 10:38:49;;;;;;;8.10;2.53;;;;;;;;;;5099876;28;20095;-68
2024/01/21 10:41:18;;;;;;;6.13;2.70;;;;;;;;;;5095917;28;20028;-68
2024/01/21 10:43:44;;;;;;;5.90;2.90;;;;;;;;;;5099587;28;20028;-68
2024/01/21 10:46:09;;;;;;;6.73;3.20;;;;;;;;;;5096456;28;20035;-68
2024/01/21 10:48:35;;;;;;;7.70;3.00;;;;;;;;;;5097204;28;20364;-68
2024/01/21 10:51:01;;;;;;;7.40;2.73;;;;;;;;;;5099918;28;20036;-68
2024/01/21 10:53:26;;;;;;;7.47;2.83;;;;;;;;;;5095823;28;20428;-68
2024/01/21 10:55:53;;;;;;;6.60;2.83;;;;;;;;;;5095912;28;20028;-67
2024/01/21 10:58:18;;;;;;;7.07;2.53;;;;;;;;;;5094736;28;20024;-68
2024/01/21 11:00:44;;;;;;;5.83;2.80;;;;;;;;;;5091914;28;20023;-68
2024/01/21 11:03:23;;;;;;;6.53;3.00;;;;;;;;;;5093264;28;20123;-66
2024/01/21 11:05:51;;;;;;;7.40;3.47;;;;;;;;;;5092714;28;20082;-66
2024/01/21 11:08:16;;;;;;;5.43;2.50;;;;;;;;;;5089045;28;20489;-66
2024/01/21 11:10:44;;;;;;;6.17;2.87;;;;;;;;;;5093068;28;20131;-66
2024/01/21 11:13:09;;;;;;;7.57;3.43;;;;;;;;;;5087293;28;20020;-68
2024/01/21 11:15:34;;;;;;;9.43;3.53;;;;;;;;;;5086858;28;20367;-67
2024/01/21 11:18:09;;;;;;;11.60;3.50;;;;;;;;;;5091400;28;20028;-67
2024/01/21 11:20:34;;;;;;;5.87;2.33;;;;;;;;;;5092944;28;20023;-67
2024/01/21 11:23:00;;;;;;;6.33;2.67;;;;;;;;;;5079055;28;20028;-68
2024/01/21 11:25:31;;;;;;;8.07;3.13;;;;;;;;;;5093491;28;20474;-66
2024/01/21 11:27:57;;;;;;;;;;;;;;;;;;5094659;28;20372;-67
2024/01/21 11:30:24;;;;;;;7.43;3.23;;;;;;;;;;5095923;28;19997;-67
2024/01/21 11:32:57;;;;;;;5.47;2.53;;;;;;;;;;5091140;28;20031;-67
2024/01/21 11:35:22;;;;;;;6.70;2.73;;;;;;;;;;5090832;28;20073;-67
2024/01/21 11:37:52;;;;;;;9.00;3.70;;;;;;;;;;5098329;28;20023;-66
2024/01/21 11:40:18;;;;;;;5.93;2.77;;;;;;;;;;5091925;28;20084;-67
2024/01/21 11:42:45;;;;;;;4.90;2.33;;;;;;;;;;5094964;28;20028;-66
2024/01/21 11:45:11;;;;;;;10.27;4.07;;;;;;;;;;5092747;28;20024;-67
2024/01/21 11:47:37;;;;;;;6.30;2.87;;;;;;;;;;5092832;28;20468;-67
2024/01/21 11:50:02;;;;;;;8.73;3.57;;;;;;;;;;5094716;28;20530;-67
2024/01/21 11:52:28;;;;;;;7.37;3.60;;;;;;;;;;5095727;28;20028;-67
2024/01/21 11:54:53;;;;;;;7.43;3.97;;;;;;;;;;5091107;28;20024;-67
2024/01/21 11:57:19;;;;;;;8.33;3.33;;;;;;;;;;5096406;28;20038;-68
2024/01/21 11:59:44;;;;;;;7.33;3.00;;;;;;;;;;5089483;28;20106;-66
2024/01/21 12:02:10;;;;;;;8.87;3.60;;;;;;;;;;5091079;28;20122;-67
2024/01/21 12:04:38;;;;;;;7.30;3.50;;;;;;;;;;5088287;28;20683;-67
2024/01/21 12:07:04;;;;;;;8.97;3.70;;;;;;;;;;5088392;28;20546;-67
2024/01/21 12:09:29;;;;;;;7.73;3.37;;;;;;;;;;5091029;28;20091;-66
2024/01/21 12:11:54;;;;;;;7.17;3.70;;;;;;;;;;5092541;28;20028;-67
2024/01/21 12:14:20;;;;;;;8.63;3.87;;;;;;;;;;5089538;28;20016;-66
2024/01/21 12:16:49;;;;;;;7.87;3.40;;;;;;;;;;5073020;28;20024;-67
2024/01/21 12:19:15;;;;;;;7.93;3.80;;;;;;;;;;5087776;28;20153;-67
2024/01/21 12:21:42;;;;;;;11.37;4.73;;;;;;;;;;5095696;28;20049;-67
2024/01/21 12:24:07;;;;;;;9.13;3.97;;;;;;;;;;5086372;28;20507;-67
2024/01/21 12:26:32;;;;;;;7.47;3.27;;;;;;;;;;5084858;28;20024;-67
2024/01/21 12:29:05;;;;;;;9.07;4.60;;;;;;;;;;5087729;28;20112;-67
2024/01/21 12:31:31;;;;;;;8.23;3.73;;;;;;;;;;5096750;28;20480;-66
2024/01/21 12:34:00;;;;;;;9.13;4.17;;;;;;;;;;5092749;28;20024;-66
2024/01/21 12:36:25;;;;;;;7.97;3.90;;;;;;;;;;5089365;28;20139;-67
2024/01/21 12:38:52;;;;;;;7.93;3.73;;;;;;;;;;5087966;28;20107;-67
2024/01/21 12:41:18;;;;;;;8.53;3.70;;;;;;;;;;5083400;28;20476;-67
2024/01/21 12:43:43;;;;;;;10.53;3.93;;;;;;;;;;5095256;28;20027;-66
2024/01/21 12:46:12;;;;;;;9.27;4.30;;;;;;;;;;5087874;28;20634;-67
2024/01/21 12:48:37;;;;;;;8.53;3.70;;;;;;;;;;5092524;28;20028;-67
2024/01/21 12:51:02;;;;;;;10.43;4.13;;;;;;;;;;5091891;28;20051;-67
2024/01/21 12:53:27;;;;;;;10.63;4.00;;;;;;;;;;5090820;28;20060;-67
2024/01/21 12:55:53;;;;;;;8.47;4.17;;;;;;;;;;5093068;28;20442;-67
2024/01/21 12:58:19;;;;;;;9.87;3.90;;;;;;;;;;5089968;28;20119;-68
2024/01/21 13:00:45;;;;;;;8.63;3.87;;;;;;;;;;5092540;28;20107;-68
2024/01/21 13:03:11;;;;;;;9.67;3.97;;;;;;;;;;5089153;28;20105;-67
2024/01/21 13:05:36;;;;;;;7.97;3.83;;;;;;;;;;5089406;28;20035;-67
2024/01/21 13:08:01;;;;;;;10.03;4.77;;;;;;;;;;5099204;28;20562;-67
2024/01/21 13:10:26;;;;;;;7.57;3.27;;;;;;;;;;5091375;28;20034;-67
2024/01/21 13:12:52;;;;;;;11.63;4.50;;;;;;;;;;5090375;28;20042;-68
2024/01/21 13:15:17;;;;;;;6.33;3.03;;;;;;;;;;5089449;28;20169;-68
2024/01/21 13:17:42;;;;;;;7.90;3.80;;;;;;;;;;5090487;28;20020;-67
2024/01/21 13:20:08;;;;;;;9.40;4.20;;;;;;;;;;5090991;28;20077;-67
2024/01/21 13:22:34;;;;;;;10.70;4.37;;;;;;;;;;5087380;28;20464;-68
2024/01/21 13:24:59;;;;;;;7.90;3.37;;;;;;;;;;5087495;28;20031;-69
2024/01/21 13:27:37;;;;;;;11.07;5.33;;;;;;;;;;5083104;28;20488;-68
2024/01/21 13:32:47;;;;;;;6.03;2.70;;;;;;;;;;5088849;28;20119;-69
2024/01/21 13:35:12;;;;;;;6.57;3.10;;;;;;;;;;5087279;28;20099;-69
2024/01/21 13:37:38;;;;;;;10.53;4.80;;;;;;;;;;5089800;28;20070;-69
2024/01/21 13:40:04;;;;;;;6.23;3.73;;;;;;;;;;5088441;28;20059;-69
2024/01/21 13:42:29;;;;;;;8.90;4.77;;;;;;;;;;5093114;28;20012;-69
2024/01/21 13:44:54;;;;;;;13.50;6.47;;;;;;;;;;5084258;28;20035;-68
2024/01/21 13:47:20;;;;;;;10.43;5.13;;;;;;;;;;5088000;28;20082;-69
2024/01/21 13:49:45;;;;;;;10.53;5.00;;;;;;;;;;5093902;28;20592;-69
2024/01/21 13:52:14;;;;;;;8.83;3.93;;;;;;;;;;5096198;28;20082;-69
2024/01/21 13:54:40;;;;;;;9.17;3.97;;;;;;;;;;5086843;28;20011;-68
2024/01/21 13:57:07;;;;;;;11.73;4.67;;;;;;;;;;5094020;28;20625;-67
2024/01/21 13:59:32;;;;;;;11.63;4.90;;;;;;;;;;5090374;28;20024;-67
2024/01/21 14:01:57;;;;;;;15.63;5.73;;;;;;;;;;5089234;28;20097;-67
2024/01/21 14:04:23;;;;;;;11.27;5.50;;;;;;;;;;5107847;27;20043;-67
2024/01/21 14:06:48;;;;;;;8.97;4.10;;;;;;;;;;5112129;28;20433;-67
2024/01/21 14:09:14;;;;;;;12.00;5.17;;;;;;;;;;5112074;28;20031;-68
2024/01/21 14:11:40;;;;;;;10.90;3.70;;;;;;;;;;5109597;28;20031;-67
2024/01/21 14:14:05;;;;;;;8.17;3.97;;;;;;;;;;5113314;28;20024;-67
2024/01/21 14:16:31;;;;;;;12.80;5.23;;;;;;;;;;5116876;27;20032;-66
2024/01/21 14:18:56;;;;;;;10.10;4.70;;;;;;;;;;5112535;27;20035;-67
2024/01/21 14:21:21;;;;;;;12.03;5.80;;;;;;;;;;5113749;27;20051;-67
2024/01/21 14:23:46;;;;;;;11.77;4.63;;;;;;;;;;5108213;27;20091;-67
2024/01/21 14:26:14;;;;;;;10.37;4.73;;;;;;;;;;5112963;27;21282;-67
2024/01/21 14:28:42;;;;;;;12.27;5.43;;;;;;;;;;5109708;27;20026;-67
2024/01/21 14:31:08;;;;;;;11.70;5.47;;;;;;;;;;5108134;28;20028;-67
2024/01/21 14:33:33;;;;;;;11.07;5.57;;;;;;;;;;5110045;27;20521;-67
2024/01/21 14:35:59;;;;;;;9.37;4.33;;;;;;;;;;5110747;27;20024;-67